Terminal Aerodrome Forecast
Issued by NWS Detroit/Pontiac, MI

Home | Current Version | Previous Version | Text Only | Print | Product List | Glossary On
Versions: 1 2 3 4 5 6 7 8 9 10 11 12 13
000
FTUS43 KDTX 250536
TAFFNT
TAF
KFNT 250536Z 2506/2606 12006KT P6SM SCT070 OVC120
     FM250700 19008KT P6SM BKN120
     FM251000 20010G17KT P6SM SCT080 BKN120
     FM251400 21016G24KT P6SM SCT040 BKN080
     FM251700 22017G27KT P6SM BKN040 OVC080 PROB30 2517/2520 6SM
      SHRA OVC040
     FM252300 22011G18KT P6SM SCT060 BKN200=

USA.gov is the U.S. government's official web portal to all federal, state and local government web resources and services.